Flight Track Log - Related Links

Times and Time Zones

All times are in EDT time to prevent confusion due to time zone crossing. See the SWA2236 flight status page for this flight to view local times or setup timezone preferences in your user account.

Time Position Orientation Groundspeed Altitude Reporting Facility
EDT Latitude Longitude Course Direction KTS MPH feet Rate Location/Type
Thu 08:22:36 PM 30.4928 -81.7042 258° West 150 173 1,200  Level Jacksonville Center
Thu 08:23:14 PM 30.4847 -81.7475 258° West 192 221 2,700 2,694 Climbing Jacksonville Center
Thu 08:24:14 PM 30.4686 -81.8081 253° West 226 260 5,600 3,250 Climbing Jacksonville Center
Thu 08:25:14 PM 30.4483 -81.8925 254° West 267 307 9,200 3,000 Climbing Jacksonville Center
Thu 08:26:14 PM 30.4367 -81.9794 261° West 290 334 11,600 2,700 Climbing Jacksonville Center
Thu 08:27:14 PM 30.4289 -82.0881 265° West 321 369 14,600 2,350 Climbing Jacksonville Center
Thu 08:28:14 PM 30.4211 -82.1989 265° West 340 391 16,300 2,100 Climbing Jacksonville Center
Thu 08:29:14 PM 30.4133 -82.3192 266° West 361 415 18,800 2,550 Climbing Jacksonville Center
Thu 08:30:14 PM 30.4036 -82.4469 265° West 384 442 21,400 2,550 Climbing Jacksonville Center
Thu 08:31:14 PM 30.3956 -82.5747 266° West 397 457 23,900 1,950 Climbing Jacksonville Center
Thu 08:32:14 PM 30.3894 -82.7072 267° West 404 465 25,300 1,050 Climbing Jacksonville Center
Thu 08:33:14 PM 30.4878 -82.8106 318° Northwest 386 444 26,000 350 Climbing Jacksonville Center
Thu 08:34:14 PM 30.5608 -82.8997 314° West 409 471 26,000  Level Jacksonville Center
Thu 08:35:14 PM 30.6569 -83.0011 318° Northwest 414 476 26,000 800 Level Jacksonville Center
Thu 08:36:14 PM 30.7444 -83.1006 316° Northwest 425 489 27,600 1,500 Climbing Jacksonville Center
Thu 08:37:14 PM 30.8361 -83.1950 319° Northwest 430 495 29,000 1,450 Climbing Jacksonville Center
Thu 08:38:14 PM 30.9531 -83.2536 337° Northwest 446 513 30,500 1,700 Climbing Jacksonville Center
Thu 08:39:14 PM 31.0717 -83.3050 340° North 446 513 32,400 1,950 Climbing Jacksonville Center
Thu 08:40:14 PM 31.1717 -83.3928 323° Northwest 446 513 34,400 1,800 Climbing Jacksonville Center
Thu 08:41:14 PM 31.2486 -83.5025 309° West 435 501 36,000 800 Climbing Jacksonville Center
Thu 08:42:14 PM 31.3272 -83.6100 311° West 435 501 36,000 900 Level Jacksonville Center
Thu 08:43:14 PM 31.4039 -83.7178 310° West 435 501 37,800 723 Climbing Jacksonville Center
Thu 08:45:00 PM 31.5317 -83.9000 309° West 446 513 38,000 72 Climbing Atlanta Center
Thu 08:46:00 PM 31.6172 -83.9997 315° West 440 506 38,000  Level Atlanta Center
Thu 08:47:00 PM 31.7342 -84.0242 350° North 416 479 38,000  Level Atlanta Center
Thu 08:48:00 PM 31.8531 -84.0486 350° North 416 479 38,000  Level Atlanta Center
Thu 08:49:00 PM 31.9700 -84.0756 349° North 421 484 38,000  Level Atlanta Center
Thu 08:50:00 PM 32.0869 -84.0978 351° North 421 484 38,000  Level Atlanta Center
Thu 08:51:00 PM 32.2142 -84.1272 349° North 421 484 38,000  Level Atlanta Center
Thu 08:52:00 PM 32.3331 -84.1519 350° North 426 490 38,000  Level Atlanta Center
Thu 08:53:00 PM 32.4500 -84.1767 350° North 426 490 38,000  Level Atlanta Center
Thu 08:54:00 PM 32.5689 -84.2039 349° North 431 496 38,000  Level Atlanta Center
Thu 08:55:00 PM 32.6900 -84.2214 353° North 431 496 38,000  Level Atlanta Center
Thu 08:56:00 PM 32.8089 -84.2119 North 426 490 38,000  Level Atlanta Center
Thu 08:57:00 PM 32.9319 -84.1972 North 426 490 38,000  Level Atlanta Center
Thu 08:58:00 PM 33.0553 -84.1850 North 431 496 38,000  Level Atlanta Center
Thu 08:59:00 PM 33.1742 -84.1728 North 436 502 38,000  Level Atlanta Center
Thu 09:00:00 PM 33.2975 -84.1606 North 436 502 38,000  Level Atlanta Center
Thu 09:01:00 PM 33.4186 -84.1458 North 436 502 38,000  Level Atlanta Center
Thu 09:01:59 PM 33.5394 -84.1336 North 436 502 38,000  Level Atlanta Center
Thu 09:03:00 PM 33.6647 -84.1211 North 441 507 38,000  Level Atlanta Center
Thu 09:04:00 PM 33.7900 -84.1064 North 446 513 38,000  Level Atlanta Center
Thu 09:05:00 PM 33.9153 -84.0964 North 446 513 38,000  Level Atlanta Center
Thu 09:06:00 PM 34.0406 -84.0839 North 446 513 38,000  Level Atlanta Center
Thu 09:07:00 PM 34.1658 -84.0714 North 441 507 38,000  Level Atlanta Center
Thu 09:08:00 PM 34.2742 -84.0614 North 441 507 38,000 250 Level Atlanta Center
Thu 09:09:00 PM 34.4017 -84.0489 North 441 507 38,500 500 Climbing Atlanta Center
Thu 09:10:00 PM 34.5247 -84.0389 North 441 507 39,000 250 Climbing Atlanta Center
Thu 09:11:00 PM 34.6478 -84.0261 North 441 507 39,000  Level Atlanta Center
Thu 09:12:00 PM 34.7772 -84.0108 North 435 501 39,000  Level Atlanta Center
Thu 09:13:00 PM 34.8983 -84.0008 North 435 501 39,000  Level Atlanta Center
Thu 09:14:00 PM 35.0194 -83.9881 North 442 509 39,000  Level Atlanta Center
Thu 09:15:00 PM 35.1425 -83.9778 North 442 509 39,000  Level Atlanta Center
Thu 09:16:00 PM 35.2633 -83.9625 North 442 509 39,000  Level Atlanta Center
Thu 09:17:00 PM 35.3864 -83.9497 North 442 509 39,000  Level Atlanta Center
Thu 09:18:00 PM 35.5139 -83.9392 North 442 509 39,000  Level Atlanta Center
Thu 09:19:00 PM 35.6347 -83.9236 North 442 509 39,000  Level Atlanta Center
Thu 09:20:00 PM 35.7578 -83.9108 North 442 509 39,000  Level Atlanta Center
Thu 09:21:00 PM 35.8808 -83.8953 North 442 509 39,000  Level Atlanta Center
Thu 09:22:00 PM 35.9956 -83.8386 22° Northeast 442 509 39,000  Level Atlanta Center
Thu 09:23:00 PM 36.1081 -83.7664 27° Northeast 442 509 39,000  Level Atlanta Center
Thu 09:24:25 PM 36.2669 -83.6644 27° Northeast 456 525 39,000  Level Indianapolis Center
Thu 09:25:27 PM 36.3792 -83.5936 27° Northeast 454 522 39,000  Level Indianapolis Center
Thu 09:26:29 PM 36.4914 -83.5217 27° Northeast 455 524 39,000  Level Indianapolis Center
Thu 09:27:30 PM 36.6061 -83.4508 26° Northeast 458 527 39,000  Level Indianapolis Center
Thu 09:28:32 PM 36.7214 -83.3767 27° Northeast 461 531 39,000  Level Indianapolis Center
Thu 09:29:34 PM 36.8369 -83.3022 27° Northeast 462 532 39,000  Level Indianapolis Center
Thu 09:30:35 PM 36.9728 -83.2144 27° Northeast 465 535 39,000  Level Indianapolis Center
Thu 09:31:37 PM 37.0892 -83.1392 27° Northeast 463 533 39,000  Level Indianapolis Center
Thu 09:32:39 PM 37.2061 -83.0622 28° Northeast 466 536 39,000  Level Indianapolis Center
Thu 09:33:40 PM 37.2992 -82.9414 46° Northeast 482 555 39,000  Level Indianapolis Center
Thu 09:34:42 PM 37.4011 -82.8297 41° Northeast 482 555 39,000  Level Indianapolis Center
Thu 09:35:44 PM 37.5025 -82.7186 41° Northeast 482 555 39,000  Level Indianapolis Center
Thu 09:36:45 PM 37.6058 -82.6053 41° Northeast 487 560 39,000  Level Indianapolis Center
Thu 09:37:47 PM 37.7086 -82.4911 41° Northeast 489 563 39,000  Level Indianapolis Center
Thu 09:38:49 PM 37.8231 -82.3989 32° Northeast 487 560 39,000  Level Indianapolis Center
Thu 09:39:50 PM 37.9561 -82.2886 33° Northeast 486 559 39,000  Level Indianapolis Center
Thu 09:40:52 PM 38.0719 -82.1961 32° Northeast 490 564 39,000  Level Indianapolis Center
Thu 09:41:54 PM 38.1725 -82.1136 33° Northeast 496 571 39,000  Level Indianapolis Center
Thu 09:42:55 PM 38.3122 -82.0050 31° Northeast 489 563 39,000  Level Indianapolis Center
Thu 09:43:57 PM 38.3978 -81.8744 50° Northeast 503 579 39,000  Level Indianapolis Center
Thu 09:44:58 PM 38.3911 -81.7006 93° East 499 574 39,000  Level Indianapolis Center
Thu 09:46:00 PM 38.3822 -81.5292 94° East 493 567 39,000  Level Indianapolis Center
Thu 09:47:02 PM 38.3742 -81.3592 93° East 489 563 39,000 -732 Level Indianapolis Center
Thu 09:48:03 PM 38.3667 -81.1906 93° East 483 556 37,500 -976 Descending Indianapolis Center
Thu 09:49:05 PM 38.3544 -80.9831 94° East 491 565 37,000 -244 Descending Indianapolis Center
Thu 09:50:06 PM 38.3447 -80.8078 94° East 495 570 37,000  Level Indianapolis Center
Thu 09:51:08 PM 38.3361 -80.6342 94° East 494 568 37,000  Level Indianapolis Center
Thu 09:51:46 PM 38.3283 -80.5256 95° East 499 574 37,000  Level Washington Center
Thu 09:52:48 PM 38.3183 -80.3581 94° East 493 567 37,000  Level Washington Center
Thu 09:53:47 PM 38.3106 -80.1883 93° East 481 554 37,000  Level Washington Center
Thu 09:54:47 PM 38.2994 -80.0342 95° East 487 560 37,000  Level Washington Center
Thu 09:55:46 PM 38.2892 -79.8614 94° East 487 560 37,000  Level Washington Center
Thu 09:56:46 PM 38.2783 -79.6942 95° East 482 555 37,000 -500 Level Washington Center
Thu 09:57:46 PM 38.2672 -79.5244 95° East 482 555 36,000 -1,934 Descending Washington Center
Thu 09:58:47 PM 38.2714 -79.3342 88° East 482 555 33,100 -2,550 Descending Washington Center
Thu 09:59:46 PM 38.3139 -79.1722 71° East 479 551 30,900 -2,218 Descending Washington Center
Thu 10:00:46 PM 38.3539 -79.0153 72° East 479 551 28,700 -1,950 Descending Washington Center
Thu 10:01:46 PM 38.3894 -78.8581 74° East 467 537 27,000 -1,736 Descending Washington Center
Thu 10:02:47 PM 38.4289 -78.7111 71° East 453 521 25,200 -1,820 Descending Washington Center
Thu 10:03:48 PM 38.4658 -78.5642 72° East 441 507 23,300 -1,438 Descending Washington Center
Thu 10:04:48 PM 38.5050 -78.4172 71° East 436 502 22,300 -1,000 Descending Washington Center
Thu 10:05:48 PM 38.5394 -78.2753 73° East 436 502 21,300 -1,008 Descending Washington Center
Thu 10:06:47 PM 38.5739 -78.1331 73° East 425 489 20,300 -1,000 Descending Washington Center
Thu 10:07:48 PM 38.6081 -77.9961 72° East 414 476 19,300 -650 Descending Washington Center
Thu 10:08:47 PM 38.6375 -77.8694 73° East 398 458 19,000 -661 Descending Washington Center
Thu 10:09:46 PM 38.6333 -77.7525 93° East 362 417 18,000 -1,300 Descending Washington Center
Thu 10:10:47 PM 38.6169 -77.6269 99° East 362 417 16,400 -992 Descending Washington Center
Thu 10:11:47 PM 38.6022 -77.5017 99° East 362 417 16,000 -198 Descending Washington Center
Thu 10:12:48 PM 38.5917 -77.3792 96° East 357 411 16,000 -50 Level Washington Center
Thu 10:13:48 PM 38.6161 -77.2575 76° East 343 395 15,900 -947 Descending Washington Center
Thu 10:14:42 PM 38.6500 -77.1333 71° East 339 390 14,200 -1,750 Descending Potomac TRACON
Thu 10:15:48 PM 38.6833 -77.0167 70° East 331 381 12,400 -1,636 Descending Potomac TRACON
Thu 10:16:43 PM 38.7000 -76.9167 78° East 324 373 10,900 -1,304 Descending Potomac TRACON
Thu 10:17:43 PM 38.7333 -76.8000 70° East 303 349 9,900 -1,190 Descending Potomac TRACON
Thu 10:18:49 PM 38.7500 -76.7000 78° East 280 322 8,400 -1,350 Descending Potomac TRACON
Thu 10:19:43 PM 38.7833 -76.6167 63° Northeast 276 318 7,200 -1,200 Descending Potomac TRACON
Thu 10:20:49 PM 38.8167 -76.5333 63° Northeast 270 311 6,000 -1,048 Descending Potomac TRACON
Thu 10:21:49 PM 38.8833 -76.5000 21° North 252 290 5,000 -947 Descending Potomac TRACON
Thu 10:22:43 PM 38.9500 -76.5167 349° North 243 280 4,200 -667 Descending Potomac TRACON
Thu 10:23:37 PM 39.0000 -76.5333 345° North 207 238 3,800 -737 Descending Potomac TRACON
Thu 10:24:37 PM 39.0500 -76.5500 345° North 195 224 2,800 -950 Descending Potomac TRACON
Thu 10:25:37 PM 39.0833 -76.6000 311° West 172 198 1,900 -864 Descending Potomac TRACON
Thu 10:26:49 PM 39.1333 -76.6333 333° Northwest 157 181 900 -833 Descending Potomac TRACON
Thu 10:28:00 PM 39.1667 -76.6667 339° North  Level FlightAware Approximate
Thu 10:35:00 PM 39.1754 -76.6683 339° North  Level Estimated
Thu 10:36:00 PM 39.1754 -76.6683 339° North  Level Estimated
Thu 10:37:00 PM 39.1754 -76.6683 339° North  Level Estimated
Thu 10:38:00 PM 39.1754 -76.6683 339° North  Level Estimated
Thu 10:39:00 PM 39.1754 -76.6683 339° North  Level Estimated

Login

Don't have an account? Register now (free) for customized features, flight alerts, and more!